createdAt,value
2023-04-10T00:02:14.518Z,5.25
2023-04-10T00:04:41.850Z,5.70
2023-04-10T00:07:08.747Z,5.40
2023-04-10T00:09:36.072Z,4.95
2023-04-10T00:12:02.905Z,5.35
2023-04-10T00:14:29.710Z,5.40
2023-04-10T00:16:56.601Z,5.47
2023-04-10T00:19:23.451Z,5.18
2023-04-10T00:21:50.293Z,5.32
2023-04-10T00:24:17.137Z,4.93
2023-04-10T00:26:43.969Z,5.22
2023-04-10T00:29:10.881Z,5.63
2023-04-10T00:31:37.755Z,5.35
2023-04-10T00:34:05.996Z,5.22
2023-04-10T00:36:33.098Z,7.43
2023-04-10T00:38:59.947Z,6.93
2023-04-10T00:41:27.439Z,5.55
2023-04-10T00:43:57.626Z,4.65
2023-04-10T00:46:24.809Z,6.43
2023-04-10T00:48:52.589Z,5.50
2023-04-10T00:51:20.791Z,5.13
2023-04-10T00:53:51.004Z,5.72
2023-04-10T00:56:18.992Z,5.22
2023-04-10T00:58:45.890Z,5.65
2023-04-10T01:01:13.156Z,4.65
2023-04-10T01:03:40.376Z,5.32
2023-04-10T01:06:49.857Z,4.90
2023-04-10T01:09:26.002Z,5.07
2023-04-10T01:12:02.215Z,5.20
2023-04-10T01:15:10.804Z,4.93
2023-04-10T01:17:55.285Z,5.10
2023-04-10T01:20:23.592Z,5.53
2023-04-10T01:22:57.316Z,5.50
2023-04-10T01:25:54.181Z,5.43
2023-04-10T01:29:00.431Z,4.82
2023-04-10T01:31:35.711Z,5.03
2023-04-10T01:34:09.549Z,4.65
2023-04-10T01:36:57.472Z,5.32
2023-04-10T01:39:24.506Z,5.05
2023-04-10T01:41:56.344Z,4.35
2023-04-10T01:44:33.578Z,5.18
2023-04-10T01:47:00.662Z,4.70
2023-04-10T01:49:28.578Z,4.60
2023-04-10T01:52:02.406Z,5.35
2023-04-10T01:54:30.842Z,5.35
2023-04-10T01:57:02.251Z,4.70
2023-04-10T01:59:31.529Z,5.00
2023-04-10T02:01:59.341Z,5.15
2023-04-10T02:04:26.846Z,5.35
2023-04-10T02:07:02.664Z,5.25
2023-04-10T02:09:34.362Z,5.32
2023-04-10T02:12:07.099Z,6.13
2023-04-10T02:14:36.442Z,5.72
2023-04-10T02:17:03.443Z,5.03
2023-04-10T02:19:31.564Z,4.72
2023-04-10T02:21:58.867Z,4.35
2023-04-10T02:24:26.480Z,5.13
2023-04-10T02:26:53.496Z,5.28
2023-04-10T02:29:20.469Z,4.75
2023-04-10T02:31:47.397Z,5.18
2023-04-10T02:34:14.480Z,4.78
2023-04-10T02:36:41.888Z,5.15
2023-04-10T02:39:11.186Z,4.18
2023-04-10T02:41:46.634Z,4.38
2023-04-10T02:44:14.342Z,4.70
2023-04-10T02:46:42.091Z,5.13
2023-04-10T02:49:09.497Z,4.25
2023-04-10T02:51:36.995Z,5.10
2023-04-10T02:54:04.753Z,4.90
2023-04-10T02:56:36.482Z,4.50
2023-04-10T02:59:03.725Z,4.90
2023-04-10T03:01:32.075Z,4.43
2023-04-10T03:04:00.007Z,5.07
2023-04-10T03:06:31.419Z,4.65
2023-04-10T03:08:58.745Z,4.85
2023-04-10T03:11:27.338Z,4.80
2023-04-10T03:13:54.513Z,4.07
2023-04-10T03:16:21.868Z,4.35
2023-04-10T03:18:48.751Z,4.65
2023-04-10T03:21:16.608Z,4.78
2023-04-10T03:23:43.456Z,5.03
2023-04-10T03:26:11.293Z,6.13
2023-04-10T03:28:39.827Z,9.57
2023-04-10T03:31:10.681Z,4.80
2023-04-10T03:33:37.815Z,4.57
2023-04-10T03:36:05.262Z,4.22
2023-04-10T03:38:33.460Z,4.90
2023-04-10T03:41:00.312Z,4.85
2023-04-10T03:43:31.341Z,4.65
2023-04-10T03:45:59.042Z,4.38
2023-04-10T03:48:28.462Z,4.47
2023-04-10T03:50:55.584Z,4.45
2023-04-10T03:53:23.169Z,4.53
2023-04-10T03:55:54.529Z,4.30
2023-04-10T03:58:23.063Z,4.63
2023-04-10T04:00:51.706Z,5.13
2023-04-10T04:03:27.799Z,4.95
2023-04-10T04:06:00.634Z,4.53
2023-04-10T04:08:27.463Z,4.22
2023-04-10T04:11:12.986Z,4.78
2023-04-10T04:14:06.135Z,4.40
2023-04-10T04:17:01.993Z,4.85
2023-04-10T04:19:49.187Z,4.03
2023-04-10T04:22:26.163Z,4.60
2023-04-10T04:25:11.592Z,4.20
2023-04-10T04:27:53.266Z,4.43
2023-04-10T04:30:52.448Z,5.30
2023-04-10T04:33:25.452Z,4.55
2023-04-10T04:35:56.284Z,4.32
2023-04-10T04:38:36.744Z,5.20
2023-04-10T04:41:22.139Z,3.90
2023-04-10T04:44:05.184Z,5.15
2023-04-10T04:46:50.593Z,4.57
2023-04-10T04:49:17.459Z,5.13
2023-04-10T04:52:04.388Z,4.47
2023-04-10T04:54:54.300Z,4.35
2023-04-10T04:57:35.260Z,4.75
2023-04-10T05:00:31.330Z,4.10
2023-04-10T05:03:01.033Z,4.57
2023-04-10T05:05:57.743Z,4.38
2023-04-10T05:08:33.600Z,4.45
2023-04-10T05:11:08.024Z,4.05
2023-04-10T05:13:53.215Z,5.00
2023-04-10T05:16:44.844Z,4.60
2023-04-10T05:19:11.652Z,4.07
2023-04-10T05:21:41.526Z,4.53
2023-04-10T05:24:23.570Z,4.53
2023-04-10T05:27:09.347Z,4.20
2023-04-10T05:29:54.908Z,4.68
2023-04-10T05:32:39.545Z,4.32
2023-04-10T05:35:23.785Z,4.70
2023-04-10T05:38:10.940Z,3.92
2023-04-10T05:40:37.784Z,4.38
2023-04-10T05:43:22.004Z,4.50
2023-04-10T05:46:08.969Z,4.18
2023-04-10T05:48:49.288Z,4.10
2023-04-10T05:51:21.781Z,4.63
2023-04-10T05:54:07.289Z,4.38
2023-04-10T05:57:04.577Z,4.05
2023-04-10T05:59:37.354Z,4.03
2023-04-10T06:02:20.084Z,4.05
2023-04-10T06:04:47.810Z,4.57
2023-04-10T06:07:16.207Z,3.95
2023-04-10T06:09:43.090Z,4.15
2023-04-10T06:12:10.747Z,3.83
2023-04-10T06:14:39.889Z,4.00
2023-04-10T06:17:07.202Z,3.55
2023-04-10T06:19:34.161Z,4.40
2023-04-10T06:22:01.173Z,3.30
2023-04-10T06:24:28.956Z,3.72
2023-04-10T06:26:57.084Z,3.83
2023-04-10T06:29:24.579Z,3.72
2023-04-10T06:31:51.874Z,3.35
2023-04-10T06:34:21.397Z,3.50
2023-04-10T06:36:56.209Z,3.53
2023-04-10T06:39:31.984Z,3.78
2023-04-10T06:42:09.352Z,3.55
2023-04-10T06:44:46.126Z,3.25
2023-04-10T06:47:13.347Z,3.63
2023-04-10T06:49:40.430Z,3.60
2023-04-10T06:52:07.497Z,3.63
2023-04-10T06:54:34.420Z,3.95
2023-04-10T06:57:01.234Z,3.97
2023-04-10T06:59:29.127Z,4.07
2023-04-10T07:01:56.007Z,4.25
2023-04-10T07:04:22.858Z,4.10
2023-04-10T07:06:49.659Z,3.67
2023-04-10T07:09:16.481Z,4.13
2023-04-10T07:11:43.268Z,4.38
2023-04-10T07:14:10.162Z,4.03
2023-04-10T07:16:37.372Z,3.80
2023-04-10T07:19:04.290Z,4.55
2023-04-10T07:21:31.526Z,4.57
2023-04-10T07:23:58.390Z,4.50
2023-04-10T07:26:26.020Z,4.63
2023-04-10T07:28:53.173Z,4.65
2023-04-10T07:31:20.378Z,5.00
2023-04-10T07:33:47.334Z,4.97
2023-04-10T07:36:14.208Z,4.22
2023-04-10T07:38:42.401Z,4.43
2023-04-10T07:41:12.069Z,4.05
2023-04-10T07:43:38.982Z,4.40
2023-04-10T07:46:06.285Z,3.60
2023-04-10T07:48:33.174Z,3.63
2023-04-10T07:51:00.029Z,3.88
2023-04-10T07:53:27.276Z,3.90
2023-04-10T07:55:54.150Z,3.63
2023-04-10T07:58:21.651Z,4.40
2023-04-10T08:00:48.601Z,4.00
2023-04-10T08:03:16.144Z,3.40
2023-04-10T08:05:43.066Z,3.22
2023-04-10T08:08:09.896Z,3.72
2023-04-10T08:10:37.963Z,4.10
2023-04-10T08:13:05.417Z,3.40
2023-04-10T08:15:32.277Z,3.47
2023-04-10T08:17:59.134Z,3.45
2023-04-10T08:20:26.150Z,3.17
2023-04-10T08:22:53.767Z,3.47
2023-04-10T08:25:20.646Z,3.67
2023-04-10T08:27:47.483Z,3.42
2023-04-10T08:30:14.384Z,3.22
2023-04-10T08:32:41.361Z,3.65
2023-04-10T08:35:08.779Z,3.65
2023-04-10T08:37:36.005Z,4.20
2023-04-10T08:40:03.165Z,3.78
2023-04-10T08:42:33.940Z,4.22
2023-04-10T08:45:01.708Z,4.15
2023-04-10T08:47:29.053Z,4.20
2023-04-10T08:49:59.172Z,5.00
2023-04-10T08:52:26.684Z,4.40
2023-04-10T08:54:57.525Z,4.75
2023-04-10T08:57:24.874Z,5.60
2023-04-10T08:59:51.862Z,4.60
2023-04-10T09:02:19.554Z,5.05
2023-04-10T09:04:51.885Z,5.50
2023-04-10T09:07:18.885Z,5.32
2023-04-10T09:09:45.837Z,5.25
2023-04-10T09:12:14.061Z,5.03
2023-04-10T09:14:41.499Z,5.47
2023-04-10T09:17:12.630Z,4.63
2023-04-10T09:19:39.521Z,4.97
2023-04-10T09:22:06.512Z,4.88
2023-04-10T09:24:40.872Z,5.18
2023-04-10T09:27:07.931Z,4.43
2023-04-10T09:29:55.219Z,4.22
2023-04-10T09:32:52.587Z,5.22
2023-04-10T09:35:21.050Z,5.97
2023-04-10T09:37:47.959Z,4.57
2023-04-10T09:40:25.197Z,4.45
2023-04-10T09:42:52.210Z,4.60
2023-04-10T09:45:20.558Z,5.22
2023-04-10T09:48:03.499Z,5.07
2023-04-10T09:50:39.933Z,4.43
2023-04-10T09:53:14.722Z,4.57
2023-04-10T09:55:42.297Z,5.10
2023-04-10T09:58:09.586Z,4.25
2023-04-10T10:00:42.059Z,4.53
2023-04-10T10:03:13.843Z,3.95
2023-04-10T10:05:42.683Z,4.18
2023-04-10T10:08:13.390Z,4.53
2023-04-10T10:10:45.741Z,4.28
2023-04-10T10:13:17.828Z,3.83
2023-04-10T10:15:53.938Z,4.30
2023-04-10T10:18:36.702Z,3.47
2023-04-10T10:21:03.935Z,3.97
2023-04-10T10:23:32.077Z,3.53
2023-04-10T10:25:59.321Z,4.25
2023-04-10T10:28:27.159Z,3.50
2023-04-10T10:30:54.777Z,3.05
2023-04-10T10:33:21.621Z,3.28
2023-04-10T10:35:50.161Z,3.58
2023-04-10T10:38:17.076Z,3.60
2023-04-10T10:40:57.963Z,3.55
2023-04-10T10:43:57.980Z,3.92
2023-04-10T10:46:35.175Z,3.35
2023-04-10T10:49:02.454Z,3.40
2023-04-10T10:51:46.578Z,3.28
2023-04-10T10:54:32.304Z,3.40
2023-04-10T10:56:59.768Z,2.90
2023-04-10T10:59:48.626Z,2.50
2023-04-10T11:02:19.638Z,2.58
2023-04-10T11:04:47.949Z,2.83
2023-04-10T11:07:15.629Z,2.72
2023-04-10T11:09:57.305Z,2.63
2023-04-10T11:12:24.724Z,3.20
2023-04-10T11:14:59.273Z,2.85
2023-04-10T11:17:51.859Z,2.53
2023-04-10T11:20:21.861Z,2.95
2023-04-10T11:23:11.733Z,2.85
2023-04-10T11:25:54.036Z,2.42
2023-04-10T11:28:33.238Z,2.47
2023-04-10T11:31:23.000Z,2.47
2023-04-10T11:34:11.358Z,2.50
2023-04-10T11:36:39.513Z,2.20
2023-04-10T11:39:08.957Z,2.42
2023-04-10T11:41:37.415Z,2.58
2023-04-10T11:44:06.249Z,2.45
2023-04-10T11:46:39.907Z,2.20
2023-04-10T11:49:07.621Z,2.70
2023-04-10T11:51:34.464Z,2.03
2023-04-10T11:54:08.432Z,1.75
2023-04-10T11:56:35.591Z,1.95
2023-04-10T11:59:07.972Z,2.25
2023-04-10T12:01:34.979Z,1.88
2023-04-10T12:04:02.127Z,2.13
2023-04-10T12:06:29.071Z,2.15
2023-04-10T12:08:56.701Z,2.30
2023-04-10T12:11:28.794Z,2.75
2023-04-10T12:13:56.352Z,2.20
2023-04-10T12:16:23.357Z,3.15
2023-04-10T12:18:50.357Z,2.38
2023-04-10T12:21:17.316Z,2.28
2023-04-10T12:23:44.152Z,2.33
2023-04-10T12:26:17.210Z,2.20
2023-04-10T12:28:58.742Z,2.13
2023-04-10T12:31:32.557Z,2.35
2023-04-10T12:33:59.663Z,2.10
2023-04-10T12:36:30.290Z,2.40
2023-04-10T12:38:58.069Z,2.47
2023-04-10T12:41:26.391Z,1.83
2023-04-10T12:43:53.961Z,2.60
2023-04-10T12:46:28.164Z,2.25
2023-04-10T12:48:56.149Z,2.60
2023-04-10T12:51:45.245Z,2.65
2023-04-10T12:54:12.207Z,3.05
2023-04-10T12:56:47.583Z,2.75
2023-04-10T12:59:14.451Z,2.65
2023-04-10T13:01:41.412Z,2.60
2023-04-10T13:04:08.384Z,2.80
2023-04-10T13:06:46.002Z,2.80
2023-04-10T13:09:13.533Z,3.55
2023-04-10T13:11:40.858Z,3.00
2023-04-10T13:14:08.259Z,4.20
2023-04-10T13:16:35.455Z,3.70
2023-04-10T13:19:02.498Z,3.10
2023-04-10T13:21:29.610Z,3.08
2023-04-10T13:23:56.607Z,2.42
2023-04-10T13:26:24.096Z,2.75
2023-04-10T13:28:51.076Z,3.10
2023-04-10T13:31:18.028Z,2.85
2023-04-10T13:33:48.206Z,2.58
2023-04-10T13:36:15.691Z,2.90
2023-04-10T13:38:42.772Z,3.00
2023-04-10T13:41:09.713Z,2.95
2023-04-10T13:43:37.081Z,3.10
2023-04-10T13:46:03.996Z,2.80
2023-04-10T13:48:40.052Z,3.03
2023-04-10T13:51:08.032Z,2.83
2023-04-10T13:53:35.123Z,3.42
2023-04-10T13:56:02.079Z,3.95
2023-04-10T13:58:32.056Z,2.88
2023-04-10T14:00:59.417Z,3.17
2023-04-10T14:03:26.648Z,3.45
2023-04-10T14:05:54.031Z,2.50
2023-04-10T14:08:20.960Z,3.55
2023-04-10T14:10:54.322Z,2.70
2023-04-10T14:15:48.305Z,2.80
2023-04-10T14:18:18.348Z,3.17
2023-04-10T14:20:45.397Z,3.05
2023-04-10T14:23:18.435Z,3.03
2023-04-10T14:25:46.440Z,3.28
2023-04-10T14:28:19.393Z,3.13
2023-04-10T14:30:50.572Z,3.20
2023-04-10T14:33:20.943Z,3.10
2023-04-10T14:35:48.427Z,3.40
2023-04-10T14:38:18.611Z,3.10
2023-04-10T14:40:50.178Z,3.97
2023-04-10T14:43:17.522Z,3.17
2023-04-10T14:45:44.600Z,3.38
2023-04-10T14:48:12.878Z,3.63
2023-04-10T14:50:40.578Z,3.25
2023-04-10T14:53:10.143Z,3.38
2023-04-10T14:55:37.413Z,3.35
2023-04-10T14:58:04.671Z,3.35
2023-04-10T15:00:32.829Z,3.70
2023-04-10T15:03:00.259Z,3.30
2023-04-10T15:05:27.553Z,3.60
2023-04-10T15:07:55.159Z,3.72
2023-04-10T15:10:22.484Z,2.95
2023-04-10T15:12:49.867Z,3.90
2023-04-10T15:15:18.580Z,3.90
2023-04-10T15:17:45.779Z,3.47
2023-04-10T15:20:12.878Z,3.15
2023-04-10T15:22:42.505Z,3.15
2023-04-10T15:25:12.178Z,3.20
2023-04-10T15:27:39.445Z,3.90
2023-04-10T15:30:07.089Z,4.10
2023-04-10T15:32:34.086Z,3.55
2023-04-10T15:35:01.097Z,3.75
2023-04-10T15:37:28.275Z,3.63
2023-04-10T15:39:55.279Z,3.50
2023-04-10T15:42:22.221Z,4.03
2023-04-10T15:44:49.371Z,4.15
2023-04-10T15:47:16.358Z,3.63
2023-04-10T15:49:43.337Z,3.42
2023-04-10T15:52:10.248Z,3.60
2023-04-10T15:54:38.853Z,3.42
2023-04-10T15:57:05.881Z,3.25
2023-04-10T15:59:33.277Z,3.40
2023-04-10T16:02:00.539Z,2.97
2023-04-10T16:04:27.775Z,3.75
2023-04-10T16:06:56.710Z,3.40
2023-04-10T16:09:26.387Z,2.83
2023-04-10T16:11:54.457Z,3.10
2023-04-10T16:14:22.511Z,3.40
2023-04-10T16:16:49.891Z,3.10
2023-04-10T16:19:16.841Z,3.10
2023-04-10T16:21:43.847Z,3.03
2023-04-10T16:24:10.757Z,3.63
2023-04-10T16:26:37.678Z,3.55
2023-04-10T16:29:04.566Z,4.55
2023-04-10T16:31:31.710Z,3.08
2023-04-10T16:33:58.762Z,3.67
2023-04-10T16:36:27.112Z,3.53
2023-04-10T16:38:54.759Z,3.83
2023-04-10T16:41:22.824Z,4.30
2023-04-10T16:43:49.906Z,2.85
2023-04-10T16:46:25.891Z,3.50
2023-04-10T16:49:04.455Z,2.92
2023-04-10T16:51:33.799Z,3.53
2023-04-10T16:54:09.257Z,3.15
2023-04-10T16:56:45.912Z,2.97
2023-04-10T16:59:21.942Z,3.03
2023-04-10T17:01:58.862Z,3.20
2023-04-10T17:04:29.068Z,3.03
2023-04-10T17:06:56.142Z,3.08
2023-04-10T17:09:23.206Z,2.92
2023-04-10T17:11:53.043Z,3.00
2023-04-10T17:14:20.955Z,2.70
2023-04-10T17:16:48.016Z,2.63
2023-04-10T17:19:15.149Z,2.85
2023-04-10T17:21:42.035Z,4.35
2023-04-10T17:24:09.111Z,2.80
2023-04-10T17:26:36.199Z,2.92
2023-04-10T17:29:03.110Z,3.20
2023-04-10T17:31:31.407Z,3.30
2023-04-10T17:33:58.786Z,3.35
2023-04-10T17:36:26.732Z,3.42
2023-04-10T17:38:54.280Z,3.85
2023-04-10T17:41:21.333Z,3.33
2023-04-10T17:43:48.709Z,3.95
2023-04-10T17:46:15.891Z,2.80
2023-04-10T17:48:46.496Z,3.50
2023-04-10T17:51:13.895Z,2.92
2023-04-10T17:53:40.928Z,3.03
2023-04-10T17:56:08.066Z,3.17
2023-04-10T17:58:35.167Z,3.10
2023-04-10T18:01:02.256Z,2.70
2023-04-10T18:03:29.239Z,3.03
2023-04-10T18:05:56.262Z,3.00
2023-04-10T18:08:23.239Z,2.90
2023-04-10T18:10:50.239Z,2.88
2023-04-10T18:13:17.201Z,3.13
2023-04-10T18:15:44.144Z,2.85
2023-04-10T18:18:13.209Z,2.60
2023-04-10T18:20:40.284Z,2.42
2023-04-10T18:23:07.571Z,2.40
2023-04-10T18:25:34.731Z,2.40
2023-04-10T18:28:13.081Z,2.30
2023-04-10T18:30:41.066Z,2.45
2023-04-10T18:33:11.050Z,2.20
2023-04-10T18:35:38.590Z,2.05
2023-04-10T18:38:05.668Z,2.47
2023-04-10T18:40:34.643Z,3.50
2023-04-10T18:43:01.561Z,2.88
2023-04-10T18:45:31.350Z,1.90
2023-04-10T18:47:58.956Z,1.25
2023-04-10T18:50:26.003Z,1.90
2023-04-10T18:52:52.992Z,1.80
2023-04-10T18:55:31.353Z,1.65
2023-04-10T18:57:59.514Z,2.15
2023-04-10T19:00:26.758Z,1.58
2023-04-10T19:02:54.363Z,2.00
2023-04-10T19:05:21.538Z,2.20
2023-04-10T19:08:00.627Z,2.25
2023-04-10T19:10:31.052Z,1.60
2023-04-10T19:12:57.970Z,2.13
2023-04-10T19:15:25.197Z,2.15
2023-04-10T19:18:00.282Z,2.30
2023-04-10T19:20:50.915Z,2.67
2023-04-10T19:23:18.537Z,2.05
2023-04-10T19:25:46.844Z,1.90
2023-04-10T19:28:13.767Z,1.90
2023-04-10T19:30:40.769Z,1.88
2023-04-10T19:33:09.114Z,1.95
2023-04-10T19:35:39.439Z,1.58
2023-04-10T19:38:08.316Z,1.60
2023-04-10T19:40:36.467Z,1.73
2023-04-10T19:43:04.041Z,1.40
2023-04-10T19:45:33.088Z,1.67
2023-04-10T19:48:01.138Z,1.80
2023-04-10T19:50:33.853Z,2.08
2023-04-10T19:53:00.732Z,1.58
2023-04-10T19:55:27.710Z,1.60
2023-04-10T19:57:54.998Z,1.83
2023-04-10T20:00:22.075Z,1.52
2023-04-10T20:02:50.983Z,1.67
2023-04-10T20:05:18.647Z,1.80
2023-04-10T20:07:45.614Z,1.88
2023-04-10T20:10:12.642Z,1.33
2023-04-10T20:12:39.609Z,1.80
2023-04-10T20:15:08.954Z,1.58
2023-04-10T20:17:36.135Z,1.55
2023-04-10T20:20:03.630Z,1.60
2023-04-10T20:22:32.347Z,1.90
2023-04-10T20:24:59.860Z,1.70
2023-04-10T20:27:26.790Z,1.92
2023-04-10T20:29:53.694Z,2.03
2023-04-10T20:32:20.592Z,1.95
2023-04-10T20:34:47.490Z,2.15
2023-04-10T20:37:18.766Z,2.45
2023-04-10T20:39:45.670Z,2.28
2023-04-10T20:42:12.526Z,1.95
2023-04-10T20:44:39.435Z,2.15
2023-04-10T20:47:06.741Z,1.65
2023-04-10T20:49:34.034Z,2.40
2023-04-10T20:52:01.062Z,2.20
2023-04-10T20:54:27.961Z,2.05
2023-04-10T20:56:56.793Z,2.35
2023-04-10T20:59:24.930Z,2.25
2023-04-10T21:01:52.046Z,1.90
2023-04-10T21:04:19.859Z,2.35
2023-04-10T21:06:46.851Z,2.20
2023-04-10T21:09:13.712Z,2.42
2023-04-10T21:11:41.055Z,2.00
2023-04-10T21:14:08.033Z,2.30
2023-04-10T21:16:37.494Z,1.95
2023-04-10T21:19:04.495Z,2.20
2023-04-10T21:21:38.284Z,1.90
2023-04-10T21:24:07.491Z,1.80
2023-04-10T21:26:34.806Z,2.03
2023-04-10T21:29:01.726Z,1.90
2023-04-10T21:31:28.717Z,1.80
2023-04-10T21:33:55.695Z,2.03
2023-04-10T21:36:22.574Z,2.30
2023-04-10T21:38:49.469Z,2.08
2023-04-10T21:41:16.423Z,1.45
2023-04-10T21:43:43.399Z,2.15
2023-04-10T21:46:10.966Z,1.63
2023-04-10T21:48:37.981Z,2.20
2023-04-10T21:51:04.988Z,2.03
2023-04-10T21:53:31.904Z,1.88
2023-04-10T21:55:58.744Z,2.10
2023-04-10T21:58:25.627Z,2.05
2023-04-10T22:00:54.372Z,2.22
2023-04-10T22:03:22.053Z,1.13
2023-04-10T22:05:50.243Z,1.73
2023-04-10T22:08:19.969Z,1.80
2023-04-10T22:10:48.147Z,1.73
2023-04-10T22:13:27.493Z,1.70
2023-04-10T22:15:56.938Z,1.75
2023-04-10T22:18:23.836Z,1.73
2023-04-10T22:20:50.877Z,1.70
2023-04-10T22:23:17.761Z,1.77
2023-04-10T22:25:44.672Z,1.73
2023-04-10T22:28:11.576Z,1.65
2023-04-10T22:30:38.541Z,1.60
2023-04-10T22:33:05.577Z,1.13
2023-04-10T22:35:32.721Z,1.55
2023-04-10T22:37:59.694Z,1.48
2023-04-10T22:40:26.613Z,1.85
2023-04-10T22:42:53.465Z,1.63
2023-04-10T22:45:20.394Z,1.48
2023-04-10T22:47:47.271Z,1.63
2023-04-10T22:50:14.130Z,1.90
2023-04-10T22:52:41.001Z,1.30
2023-04-10T22:55:08.267Z,1.60
2023-04-10T22:57:35.361Z,1.25
2023-04-10T23:00:02.268Z,1.80
2023-04-10T23:02:31.329Z,1.35
2023-04-10T23:04:58.417Z,1.50
2023-04-10T23:07:27.774Z,1.75
2023-04-10T23:09:54.744Z,1.60
2023-04-10T23:12:21.592Z,1.38
2023-04-10T23:14:48.469Z,1.30
2023-04-10T23:17:15.359Z,1.45
2023-04-10T23:19:42.308Z,1.35
2023-04-10T23:22:09.125Z,1.52
2023-04-10T23:24:36.027Z,1.40
2023-04-10T23:27:05.342Z,1.75
2023-04-10T23:29:32.722Z,1.30
2023-04-10T23:31:59.622Z,1.50
2023-04-10T23:34:26.889Z,1.30
2023-04-10T23:36:54.661Z,1.38
2023-04-10T23:39:22.048Z,1.40
2023-04-10T23:41:48.966Z,1.42
2023-04-10T23:44:15.842Z,1.35
2023-04-10T23:46:42.689Z,1.77
2023-04-10T23:49:09.630Z,1.40
2023-04-10T23:51:36.512Z,1.50
2023-04-10T23:54:03.708Z,1.77
2023-04-10T23:56:31.092Z,1.40
2023-04-10T23:58:58.042Z,1.50
